IN-0002 weather

Tawang Air Force Station
Arunachal Pradesh, India

Public forecast

Using degrees Celsius for public forecast. Weather courtesy of forecast.io.

Closest aviation weather report (METAR) to Tawang Air Force Station

Closest report is Lokpriya Gopinath Bordoloi International Airport, 90.4 nm (167.4 km) S. Retrieved 2020/04/04 12:30 UTC (0 seconds ago):

VEGT 041230Z 36001KT 5000 HZ FEW020 31/12 Q1009 NOSIG

Closest aviation forecast (TAF) to Tawang Air Force Station

Closest forecast is Tezpur Airport, 71.7 nm (132.7 km) SE. Retrieved 2020/04/04 12:30 UTC (0 seconds ago):

TAF VETZ 040930Z 0412/0424 0510G20KT 6000 FEW030 SCT100 BECMG 0420/XXXX 05010KT 6000 SKC